sensor_id;sensor_type;location;lat;lon;timestamp;temperature;humidity
18460;DHT22;9359;50.932;6.924;2023-11-22T08:57:56;22.70;99.90
18460;DHT22;9359;50.932;6.924;2023-11-22T09:00:29;22.70;99.90
18460;DHT22;9359;50.932;6.924;2023-11-22T09:02:59;22.70;99.90
18460;DHT22;9359;50.932;6.924;2023-11-22T09:05:30;22.70;99.90
18460;DHT22;9359;50.932;6.924;2023-11-22T09:07:58;22.70;99.90
18460;DHT22;9359;50.932;6.924;2023-11-22T09:10:27;22.70;99.90
18460;DHT22;9359;50.932;6.924;2023-11-22T09:12:58;22.70;99.90
18460;DHT22;9359;50.932;6.924;2023-11-22T09:15:27;22.70;99.90
18460;DHT22;9359;50.932;6.924;2023-11-22T09:17:56;22.70;99.90
18460;DHT22;9359;50.932;6.924;2023-11-22T09:20:25;22.30;99.90
18460;DHT22;9359;50.932;6.924;2023-11-22T09:22:54;23.00;99.90
18460;DHT22;9359;50.932;6.924;2023-11-22T09:25:24;22.70;99.90
18460;DHT22;9359;50.932;6.924;2023-11-22T09:27:58;22.70;99.90
18460;DHT22;9359;50.932;6.924;2023-11-22T09:30:28;22.70;99.90
18460;DHT22;9359;50.932;6.924;2023-11-22T09:33:16;22.70;99.90
18460;DHT22;9359;50.932;6.924;2023-11-22T09:35:46;22.70;99.90
18460;DHT22;9359;50.932;6.924;2023-11-22T09:38:16;22.70;99.90
18460;DHT22;9359;50.932;6.924;2023-11-22T09:40:46;22.70;99.90
18460;DHT22;9359;50.932;6.924;2023-11-22T09:43:18;22.80;99.90
18460;DHT22;9359;50.932;6.924;2023-11-22T09:45:48;22.80;99.90
18460;DHT22;9359;50.932;6.924;2023-11-22T09:48:20;22.80;99.90
18460;DHT22;9359;50.932;6.924;2023-11-22T09:51:01;22.80;99.90
18460;DHT22;9359;50.932;6.924;2023-11-22T09:53:33;22.90;99.90
18460;DHT22;9359;50.932;6.924;2023-11-22T09:56:03;22.90;99.90
18460;DHT22;9359;50.932;6.924;2023-11-22T09:58:35;23.00;99.90
18460;DHT22;9359;50.932;6.924;2023-11-22T10:01:07;23.00;99.90
18460;DHT22;9359;50.932;6.924;2023-11-22T10:03:37;23.10;99.90
18460;DHT22;9359;50.932;6.924;2023-11-22T10:06:07;23.20;99.90
18460;DHT22;9359;50.932;6.924;2023-11-22T10:08:36;23.20;99.90
18460;DHT22;9359;50.932;6.924;2023-11-22T10:11:05;23.30;99.90
18460;DHT22;9359;50.932;6.924;2023-11-22T10:13:36;23.40;99.90
18460;DHT22;9359;50.932;6.924;2023-11-22T10:16:12;23.50;99.90
18460;DHT22;9359;50.932;6.924;2023-11-22T10:18:42;23.50;99.90
18460;DHT22;9359;50.932;6.924;2023-11-22T10:21:22;23.60;99.90
18460;DHT22;9359;50.932;6.924;2023-11-22T10:23:52;23.70;99.90
18460;DHT22;9359;50.932;6.924;2023-11-22T10:26:23;23.70;99.90
18460;DHT22;9359;50.932;6.924;2023-11-22T10:28:59;23.70;99.90
18460;DHT22;9359;50.932;6.924;2023-11-22T10:31:29;23.80;99.90
18460;DHT22;9359;50.932;6.924;2023-11-22T10:33:59;23.90;99.90
18460;DHT22;9359;50.932;6.924;2023-11-22T10:36:30;23.80;99.90
18460;DHT22;9359;50.932;6.924;2023-11-22T10:38:58;23.80;99.90
18460;DHT22;9359;50.932;6.924;2023-11-22T10:41:30;23.70;99.90
18460;DHT22;9359;50.932;6.924;2023-11-22T10:44:10;23.70;99.90
18460;DHT22;9359;50.932;6.924;2023-11-22T10:46:42;23.60;99.90
18460;DHT22;9359;50.932;6.924;2023-11-22T10:49:11;23.50;99.90
18460;DHT22;9359;50.932;6.924;2023-11-22T10:51:41;23.50;99.90
18460;DHT22;9359;50.932;6.924;2023-11-22T10:54:12;23.40;99.90
18460;DHT22;9359;50.932;6.924;2023-11-22T10:56:41;23.40;99.90
18460;DHT22;9359;50.932;6.924;2023-11-22T10:59:14;23.40;99.90
18460;DHT22;9359;50.932;6.924;2023-11-22T11:01:47;23.30;99.90
18460;DHT22;9359;50.932;6.924;2023-11-22T11:04:27;23.30;99.90
18460;DHT22;9359;50.932;6.924;2023-11-22T11:07:03;23.20;99.90
18460;DHT22;9359;50.932;6.924;2023-11-22T11:09:33;23.20;99.90
18460;DHT22;9359;50.932;6.924;2023-11-22T11:12:03;23.20;99.90
18460;DHT22;9359;50.932;6.924;2023-11-22T11:14:35;23.20;99.90
18460;DHT22;9359;50.932;6.924;2023-11-22T11:17:05;23.10;99.90
18460;DHT22;9359;50.932;6.924;2023-11-22T11:19:35;23.10;99.90
18460;DHT22;9359;50.932;6.924;2023-11-22T11:22:08;23.10;99.90
18460;DHT22;9359;50.932;6.924;2023-11-22T11:24:39;23.10;99.90
18460;DHT22;9359;50.932;6.924;2023-11-22T11:27:11;23.00;99.90
18460;DHT22;9359;50.932;6.924;2023-11-22T11:29:41;23.00;99.90
18460;DHT22;9359;50.932;6.924;2023-11-22T11:32:11;23.00;99.90
18460;DHT22;9359;50.932;6.924;2023-11-22T11:34:49;23.00;99.90
18460;DHT22;9359;50.932;6.924;2023-11-22T11:37:19;23.00;99.90
18460;DHT22;9359;50.932;6.924;2023-11-22T11:39:49;23.00;99.90
18460;DHT22;9359;50.932;6.924;2023-11-22T11:42:18;22.90;99.90
18460;DHT22;9359;50.932;6.924;2023-11-22T11:45:10;22.90;99.90
18460;DHT22;9359;50.932;6.924;2023-11-22T11:47:40;22.90;99.90
18460;DHT22;9359;50.932;6.924;2023-11-22T11:50:10;22.90;99.90
18460;DHT22;9359;50.932;6.924;2023-11-22T11:52:39;22.90;99.90
18460;DHT22;9359;50.932;6.924;2023-11-22T11:55:09;22.90;99.90
18460;DHT22;9359;50.932;6.924;2023-11-22T11:57:37;22.90;99.90
18460;DHT22;9359;50.932;6.924;2023-11-22T12:00:11;22.80;99.90
18460;DHT22;9359;50.932;6.924;2023-11-22T12:02:41;22.80;99.90
18460;DHT22;9359;50.932;6.924;2023-11-22T12:05:10;22.80;99.90
18460;DHT22;9359;50.932;6.924;2023-11-22T12:07:39;22.80;99.90
18460;DHT22;9359;50.932;6.924;2023-11-22T12:10:09;22.80;99.90
18460;DHT22;9359;50.932;6.924;2023-11-22T12:12:38;22.80;99.90
18460;DHT22;9359;50.932;6.924;2023-11-22T12:15:10;22.80;99.90
18460;DHT22;9359;50.932;6.924;2023-11-22T12:17:41;22.80;99.90
18460;DHT22;9359;50.932;6.924;2023-11-22T12:20:11;22.80;99.90
18460;DHT22;9359;50.932;6.924;2023-11-22T12:22:41;22.70;99.90
18460;DHT22;9359;50.932;6.924;2023-11-22T12:25:11;22.70;99.90
18460;DHT22;9359;50.932;6.924;2023-11-22T12:27:41;22.70;99.90
18460;DHT22;9359;50.932;6.924;2023-11-22T12:30:28;22.70;99.90
18460;DHT22;9359;50.932;6.924;2023-11-22T12:33:01;22.70;99.90
18460;DHT22;9359;50.932;6.924;2023-11-22T12:35:31;22.70;99.90
18460;DHT22;9359;50.932;6.924;2023-11-22T12:38:05;22.70;99.90
18460;DHT22;9359;50.932;6.924;2023-11-22T12:40:34;22.70;99.90
18460;DHT22;9359;50.932;6.924;2023-11-22T12:43:03;22.70;99.90
18460;DHT22;9359;50.932;6.924;2023-11-22T12:45:36;22.70;99.90
18460;DHT22;9359;50.932;6.924;2023-11-22T12:48:21;22.70;99.90
18460;DHT22;9359;50.932;6.924;2023-11-22T12:50:51;22.70;99.90
18460;DHT22;9359;50.932;6.924;2023-11-22T12:53:20;22.70;99.90
18460;DHT22;9359;50.932;6.924;2023-11-22T12:55:50;22.60;99.90
18460;DHT22;9359;50.932;6.924;2023-11-22T12:58:20;22.70;99.90
18460;DHT22;9359;50.932;6.924;2023-11-22T13:00:51;22.60;99.90
18460;DHT22;9359;50.932;6.924;2023-11-22T13:03:24;22.60;99.90
18460;DHT22;9359;50.932;6.924;2023-11-22T13:05:54;22.60;99.90
18460;DHT22;9359;50.932;6.924;2023-11-22T13:08:23;22.60;99.90
18460;DHT22;9359;50.932;6.924;2023-11-22T13:10:56;22.60;99.90
18460;DHT22;9359;50.932;6.924;2023-11-22T13:13:25;22.60;99.90
18460;DHT22;9359;50.932;6.924;2023-11-22T13:15:57;22.60;99.90
18460;DHT22;9359;50.932;6.924;2023-11-22T13:18:27;22.60;99.90
18460;DHT22;9359;50.932;6.924;2023-11-22T13:20:55;22.60;99.90
18460;DHT22;9359;50.932;6.924;2023-11-22T13:23:24;22.60;99.90
18460;DHT22;9359;50.932;6.924;2023-11-22T13:25:53;22.60;99.90
18460;DHT22;9359;50.932;6.924;2023-11-22T13:28:22;22.60;99.90
18460;DHT22;9359;50.932;6.924;2023-11-22T13:30:56;22.60;99.90
18460;DHT22;9359;50.932;6.924;2023-11-22T13:33:24;22.60;99.90
18460;DHT22;9359;50.932;6.924;2023-11-22T13:35:54;22.60;99.90
18460;DHT22;9359;50.932;6.924;2023-11-22T13:38:25;22.60;99.90
18460;DHT22;9359;50.932;6.924;2023-11-22T13:40:53;22.60;99.90
18460;DHT22;9359;50.932;6.924;2023-11-22T13:43:22;22.60;99.90
18460;DHT22;9359;50.932;6.924;2023-11-22T13:45:52;22.50;99.90
18460;DHT22;9359;50.932;6.924;2023-11-22T13:48:22;22.60;99.90
18460;DHT22;9359;50.932;6.924;2023-11-22T13:50:51;22.60;99.90
18460;DHT22;9359;50.932;6.924;2023-11-22T13:53:20;22.60;99.90
18460;DHT22;9359;50.932;6.924;2023-11-22T13:55:51;22.60;99.90
18460;DHT22;9359;50.932;6.924;2023-11-22T13:58:22;22.60;99.90
18460;DHT22;9359;50.932;6.924;2023-11-22T14:00:50;22.50;99.90
18460;DHT22;9359;50.932;6.924;2023-11-22T14:03:25;22.50;99.90
18460;DHT22;9359;50.932;6.924;2023-11-22T14:05:53;22.60;99.90
18460;DHT22;9359;50.932;6.924;2023-11-22T14:08:24;22.50;99.90
18460;DHT22;9359;50.932;6.924;2023-11-22T14:10:53;22.50;99.90
18460;DHT22;9359;50.932;6.924;2023-11-22T14:13:25;22.50;99.90
18460;DHT22;9359;50.932;6.924;2023-11-22T14:15:55;22.50;99.90
18460;DHT22;9359;50.932;6.924;2023-11-22T14:18:29;22.50;99.90
18460;DHT22;9359;50.932;6.924;2023-11-22T14:20:58;22.50;99.90
18460;DHT22;9359;50.932;6.924;2023-11-22T14:23:29;22.50;99.90
18460;DHT22;9359;50.932;6.924;2023-11-22T14:25:58;22.50;99.90
18460;DHT22;9359;50.932;6.924;2023-11-22T14:28:28;22.50;99.90
18460;DHT22;9359;50.932;6.924;2023-11-22T14:30:57;22.50;99.90
18460;DHT22;9359;50.932;6.924;2023-11-22T14:33:32;22.50;99.90
18460;DHT22;9359;50.932;6.924;2023-11-22T14:36:01;22.50;99.90
18460;DHT22;9359;50.932;6.924;2023-11-22T14:38:30;22.50;99.90
18460;DHT22;9359;50.932;6.924;2023-11-22T14:40:59;22.50;99.90
18460;DHT22;9359;50.932;6.924;2023-11-22T14:43:30;22.50;99.90
18460;DHT22;9359;50.932;6.924;2023-11-22T14:45:58;22.50;99.90
18460;DHT22;9359;50.932;6.924;2023-11-22T14:48:27;22.50;99.90
18460;DHT22;9359;50.932;6.924;2023-11-22T14:50:58;22.50;99.90
18460;DHT22;9359;50.932;6.924;2023-11-22T14:53:28;22.50;99.90
18460;DHT22;9359;50.932;6.924;2023-11-22T14:55:57;22.50;99.90
18460;DHT22;9359;50.932;6.924;2023-11-22T14:58:27;22.50;99.90
18460;DHT22;9359;50.932;6.924;2023-11-22T15:00:57;22.50;99.90
18460;DHT22;9359;50.932;6.924;2023-11-22T15:03:26;22.50;99.90
18460;DHT22;9359;50.932;6.924;2023-11-22T15:05:58;22.50;99.90
18460;DHT22;9359;50.932;6.924;2023-11-22T15:08:27;22.50;99.90
18460;DHT22;9359;50.932;6.924;2023-11-22T15:10:59;22.50;99.90
18460;DHT22;9359;50.932;6.924;2023-11-22T15:13:28;22.50;99.90
18460;DHT22;9359;50.932;6.924;2023-11-22T15:15:57;22.50;99.90
18460;DHT22;9359;50.932;6.924;2023-11-22T15:18:26;22.50;99.90
18460;DHT22;9359;50.932;6.924;2023-11-22T15:20:59;22.50;99.90
18460;DHT22;9359;50.932;6.924;2023-11-22T15:23:29;22.50;99.90
18460;DHT22;9359;50.932;6.924;2023-11-22T15:25:57;22.50;99.90
18460;DHT22;9359;50.932;6.924;2023-11-22T15:28:27;22.50;99.90
18460;DHT22;9359;50.932;6.924;2023-11-22T15:30:56;22.50;99.90
18460;DHT22;9359;50.932;6.924;2023-11-22T15:33:26;22.50;99.90
18460;DHT22;9359;50.932;6.924;2023-11-22T15:35:56;22.50;99.90
18460;DHT22;9359;50.932;6.924;2023-11-22T15:38:27;22.50;99.90
18460;DHT22;9359;50.932;6.924;2023-11-22T15:40:56;22.50;99.90
18460;DHT22;9359;50.932;6.924;2023-11-22T15:43:26;22.50;99.90
18460;DHT22;9359;50.932;6.924;2023-11-22T15:45:56;22.50;99.90
18460;DHT22;9359;50.932;6.924;2023-11-22T15:48:25;22.50;99.90
18460;DHT22;9359;50.932;6.924;2023-11-22T15:50:54;22.50;99.90
18460;DHT22;9359;50.932;6.924;2023-11-22T15:53:22;22.50;99.90
18460;DHT22;9359;50.932;6.924;2023-11-22T15:55:53;22.50;99.90
18460;DHT22;9359;50.932;6.924;2023-11-22T15:58:21;22.50;99.90
18460;DHT22;9359;50.932;6.924;2023-11-22T16:00:50;22.50;99.90
18460;DHT22;9359;50.932;6.924;2023-11-22T16:03:22;22.50;99.90
18460;DHT22;9359;50.932;6.924;2023-11-22T16:05:50;22.50;99.90
18460;DHT22;9359;50.932;6.924;2023-11-22T16:08:20;22.50;99.90
18460;DHT22;9359;50.932;6.924;2023-11-22T16:10:49;22.50;99.90
18460;DHT22;9359;50.932;6.924;2023-11-22T16:13:20;22.50;99.90
18460;DHT22;9359;50.932;6.924;2023-11-22T16:15:49;22.50;99.90
18460;DHT22;9359;50.932;6.924;2023-11-22T16:18:20;22.50;99.90
18460;DHT22;9359;50.932;6.924;2023-11-22T16:20:52;22.50;99.90
18460;DHT22;9359;50.932;6.924;2023-11-22T16:23:21;22.50;99.90
18460;DHT22;9359;50.932;6.924;2023-11-22T16:25:51;22.50;99.90
18460;DHT22;9359;50.932;6.924;2023-11-22T16:28:25;22.50;99.90
18460;DHT22;9359;50.932;6.924;2023-11-22T16:30:53;22.50;99.90
18460;DHT22;9359;50.932;6.924;2023-11-22T16:33:22;22.50;99.90
18460;DHT22;9359;50.932;6.924;2023-11-22T16:35:51;22.50;99.90
18460;DHT22;9359;50.932;6.924;2023-11-22T16:38:20;22.50;99.90
18460;DHT22;9359;50.932;6.924;2023-11-22T16:40:50;22.50;99.90
18460;DHT22;9359;50.932;6.924;2023-11-22T16:43:19;22.50;99.90
18460;DHT22;9359;50.932;6.924;2023-11-22T16:45:50;22.50;99.90
18460;DHT22;9359;50.932;6.924;2023-11-22T16:48:19;22.50;99.90
18460;DHT22;9359;50.932;6.924;2023-11-22T16:50:49;22.50;99.90
18460;DHT22;9359;50.932;6.924;2023-11-22T16:53:18;22.50;99.90
18460;DHT22;9359;50.932;6.924;2023-11-22T16:55:47;22.50;99.90
18460;DHT22;9359;50.932;6.924;2023-11-22T16:58:16;22.50;99.90
18460;DHT22;9359;50.932;6.924;2023-11-22T17:00:45;22.50;99.90
18460;DHT22;9359;50.932;6.924;2023-11-22T17:03:17;22.50;99.90
18460;DHT22;9359;50.932;6.924;2023-11-22T17:05:47;22.50;99.90
18460;DHT22;9359;50.932;6.924;2023-11-22T17:08:16;22.50;99.90
18460;DHT22;9359;50.932;6.924;2023-11-22T17:10:46;22.50;99.90
18460;DHT22;9359;50.932;6.924;2023-11-22T17:13:15;22.50;99.90
18460;DHT22;9359;50.932;6.924;2023-11-22T17:15:44;22.50;99.90
18460;DHT22;9359;50.932;6.924;2023-11-22T17:18:13;22.50;99.90
18460;DHT22;9359;50.932;6.924;2023-11-22T17:20:48;22.50;99.90
18460;DHT22;9359;50.932;6.924;2023-11-22T17:23:17;22.50;99.90
18460;DHT22;9359;50.932;6.924;2023-11-22T17:25:46;22.50;99.90
18460;DHT22;9359;50.932;6.924;2023-11-22T17:28:15;22.50;99.90
18460;DHT22;9359;50.932;6.924;2023-11-22T17:30:44;22.50;99.90
18460;DHT22;9359;50.932;6.924;2023-11-22T17:33:13;22.50;99.90
18460;DHT22;9359;50.932;6.924;2023-11-22T17:35:43;22.50;99.90
18460;DHT22;9359;50.932;6.924;2023-11-22T17:38:12;22.40;99.90
18460;DHT22;9359;50.932;6.924;2023-11-22T17:40:43;22.50;99.90
18460;DHT22;9359;50.932;6.924;2023-11-22T17:43:12;22.40;99.90
18460;DHT22;9359;50.932;6.924;2023-11-22T17:45:42;22.50;99.90
18460;DHT22;9359;50.932;6.924;2023-11-22T17:48:11;22.40;99.90
18460;DHT22;9359;50.932;6.924;2023-11-22T17:50:39;22.50;99.90
18460;DHT22;9359;50.932;6.924;2023-11-22T17:53:11;22.40;99.90
18460;DHT22;9359;50.932;6.924;2023-11-22T17:55:40;22.40;99.90
18460;DHT22;9359;50.932;6.924;2023-11-22T17:58:09;22.40;99.90
18460;DHT22;9359;50.932;6.924;2023-11-22T18:00:38;22.40;99.90
18460;DHT22;9359;50.932;6.924;2023-11-22T18:03:07;22.40;99.90
18460;DHT22;9359;50.932;6.924;2023-11-22T18:05:35;22.40;99.90
18460;DHT22;9359;50.932;6.924;2023-11-22T18:08:06;22.40;99.90
18460;DHT22;9359;50.932;6.924;2023-11-22T18:10:36;22.40;99.90
18460;DHT22;9359;50.932;6.924;2023-11-22T18:13:05;22.40;99.90
18460;DHT22;9359;50.932;6.924;2023-11-22T18:15:34;22.40;99.90
18460;DHT22;9359;50.932;6.924;2023-11-22T18:18:04;22.50;99.90
18460;DHT22;9359;50.932;6.924;2023-11-22T18:20:33;22.40;99.90
18460;DHT22;9359;50.932;6.924;2023-11-22T18:23:02;22.40;99.90
18460;DHT22;9359;50.932;6.924;2023-11-22T18:25:31;22.40;99.90
18460;DHT22;9359;50.932;6.924;2023-11-22T18:28:02;22.40;99.90
18460;DHT22;9359;50.932;6.924;2023-11-22T18:30:32;22.40;99.90
18460;DHT22;9359;50.932;6.924;2023-11-22T18:33:02;22.40;99.90
18460;DHT22;9359;50.932;6.924;2023-11-22T18:35:31;22.40;99.90
18460;DHT22;9359;50.932;6.924;2023-11-22T18:38:00;22.40;99.90
18460;DHT22;9359;50.932;6.924;2023-11-22T18:40:29;22.40;99.90
18460;DHT22;9359;50.932;6.924;2023-11-22T18:42:59;22.40;99.90
18460;DHT22;9359;50.932;6.924;2023-11-22T18:45:31;22.40;99.90
18460;DHT22;9359;50.932;6.924;2023-11-22T18:47:59;22.40;99.90
18460;DHT22;9359;50.932;6.924;2023-11-22T18:50:30;22.40;99.90
18460;DHT22;9359;50.932;6.924;2023-11-22T18:52:59;22.40;99.90
18460;DHT22;9359;50.932;6.924;2023-11-22T18:55:28;22.40;99.90
18460;DHT22;9359;50.932;6.924;2023-11-22T18:57:57;22.40;99.90
18460;DHT22;9359;50.932;6.924;2023-11-22T19:00:31;22.40;99.90
18460;DHT22;9359;50.932;6.924;2023-11-22T19:03:00;22.40;99.90
18460;DHT22;9359;50.932;6.924;2023-11-22T19:05:29;22.40;99.90
18460;DHT22;9359;50.932;6.924;2023-11-22T19:07:58;22.40;99.90
18460;DHT22;9359;50.932;6.924;2023-11-22T19:10:28;22.40;99.90
18460;DHT22;9359;50.932;6.924;2023-11-22T19:12:58;22.40;99.90
18460;DHT22;9359;50.932;6.924;2023-11-22T19:15:26;22.40;99.90
18460;DHT22;9359;50.932;6.924;2023-11-22T19:17:57;22.40;99.90
18460;DHT22;9359;50.932;6.924;2023-11-22T19:20:27;22.40;99.90
18460;DHT22;9359;50.932;6.924;2023-11-22T19:22:56;22.40;99.90
18460;DHT22;9359;50.932;6.924;2023-11-22T19:25:25;22.40;99.90
18460;DHT22;9359;50.932;6.924;2023-11-22T19:27:54;22.40;99.90
18460;DHT22;9359;50.932;6.924;2023-11-22T19:30:23;22.40;99.90
18460;DHT22;9359;50.932;6.924;2023-11-22T19:32:51;22.40;99.90
18460;DHT22;9359;50.932;6.924;2023-11-22T19:35:22;22.40;99.90
18460;DHT22;9359;50.932;6.924;2023-11-22T19:37:51;22.40;99.90
18460;DHT22;9359;50.932;6.924;2023-11-22T19:40:20;22.40;99.90
18460;DHT22;9359;50.932;6.924;2023-11-22T19:42:52;22.40;99.90
18460;DHT22;9359;50.932;6.924;2023-11-22T19:45:20;22.40;99.90
18460;DHT22;9359;50.932;6.924;2023-11-22T19:47:49;22.40;99.90
18460;DHT22;9359;50.932;6.924;2023-11-22T19:50:18;22.40;99.90
18460;DHT22;9359;50.932;6.924;2023-11-22T19:52:51;22.40;99.90
18460;DHT22;9359;50.932;6.924;2023-11-22T19:55:20;22.40;99.90
18460;DHT22;9359;50.932;6.924;2023-11-22T19:57:50;22.40;99.90
18460;DHT22;9359;50.932;6.924;2023-11-22T20:00:23;22.40;99.90
18460;DHT22;9359;50.932;6.924;2023-11-22T20:03:05;22.40;99.90
18460;DHT22;9359;50.932;6.924;2023-11-22T20:05:34;22.40;99.90
18460;DHT22;9359;50.932;6.924;2023-11-22T20:08:04;22.40;99.90
18460;DHT22;9359;50.932;6.924;2023-11-22T20:10:34;22.40;99.90
18460;DHT22;9359;50.932;6.924;2023-11-22T20:13:03;22.30;99.90
18460;DHT22;9359;50.932;6.924;2023-11-22T20:15:32;22.30;99.90
18460;DHT22;9359;50.932;6.924;2023-11-22T20:18:01;22.40;99.90
18460;DHT22;9359;50.932;6.924;2023-11-22T20:20:29;22.40;99.90
18460;DHT22;9359;50.932;6.924;2023-11-22T20:22:58;22.40;99.90
18460;DHT22;9359;50.932;6.924;2023-11-22T20:25:29;22.40;99.90
18460;DHT22;9359;50.932;6.924;2023-11-22T20:27:57;22.40;99.90
18460;DHT22;9359;50.932;6.924;2023-11-22T20:30:39;22.40;99.90
18460;DHT22;9359;50.932;6.924;2023-11-22T20:33:08;22.30;99.90
18460;DHT22;9359;50.932;6.924;2023-11-22T20:35:40;22.30;99.90
18460;DHT22;9359;50.932;6.924;2023-11-22T20:38:10;22.40;99.90
18460;DHT22;9359;50.932;6.924;2023-11-22T20:40:54;22.30;99.90
18460;DHT22;9359;50.932;6.924;2023-11-22T20:43:23;22.40;99.90
18460;DHT22;9359;50.932;6.924;2023-11-22T20:45:52;22.30;99.90
18460;DHT22;9359;50.932;6.924;2023-11-22T20:48:21;22.30;99.90
18460;DHT22;9359;50.932;6.924;2023-11-22T20:50:50;22.30;99.90
18460;DHT22;9359;50.932;6.924;2023-11-22T20:53:19;22.30;99.90
18460;DHT22;9359;50.932;6.924;2023-11-22T20:55:49;22.30;99.90
18460;DHT22;9359;50.932;6.924;2023-11-22T20:58:18;22.30;99.90
18460;DHT22;9359;50.932;6.924;2023-11-22T21:00:47;22.30;99.90
18460;DHT22;9359;50.932;6.924;2023-11-22T21:03:16;22.30;99.90
18460;DHT22;9359;50.932;6.924;2023-11-22T21:05:44;22.30;99.90
18460;DHT22;9359;50.932;6.924;2023-11-22T21:08:14;22.30;99.90
18460;DHT22;9359;50.932;6.924;2023-11-22T21:10:43;22.30;99.90
18460;DHT22;9359;50.932;6.924;2023-11-22T21:13:17;22.30;99.90
18460;DHT22;9359;50.932;6.924;2023-11-22T21:15:46;22.30;99.90
18460;DHT22;9359;50.932;6.924;2023-11-22T21:18:17;22.30;99.90
18460;DHT22;9359;50.932;6.924;2023-11-22T21:20:51;22.30;99.90
18460;DHT22;9359;50.932;6.924;2023-11-22T21:23:20;22.30;99.90
18460;DHT22;9359;50.932;6.924;2023-11-22T21:25:49;22.30;99.90
18460;DHT22;9359;50.932;6.924;2023-11-22T21:28:21;22.30;99.90
18460;DHT22;9359;50.932;6.924;2023-11-22T21:30:49;22.30;99.90
18460;DHT22;9359;50.932;6.924;2023-11-22T21:33:19;22.30;99.90
18460;DHT22;9359;50.932;6.924;2023-11-22T21:35:47;22.40;99.90
18460;DHT22;9359;50.932;6.924;2023-11-22T21:38:17;22.30;99.90
18460;DHT22;9359;50.932;6.924;2023-11-22T21:40:46;22.30;99.90
18460;DHT22;9359;50.932;6.924;2023-11-22T21:43:14;22.30;99.90
18460;DHT22;9359;50.932;6.924;2023-11-22T21:45:45;22.30;99.90
18460;DHT22;9359;50.932;6.924;2023-11-22T21:48:14;22.30;99.90
18460;DHT22;9359;50.932;6.924;2023-11-22T21:50:43;22.30;99.90
18460;DHT22;9359;50.932;6.924;2023-11-22T21:53:12;22.30;99.90
18460;DHT22;9359;50.932;6.924;2023-11-22T21:55:42;22.30;99.90
18460;DHT22;9359;50.932;6.924;2023-11-22T21:58:10;22.30;99.90
18460;DHT22;9359;50.932;6.924;2023-11-22T22:00:40;22.30;99.90
18460;DHT22;9359;50.932;6.924;2023-11-22T22:03:11;22.30;99.90
18460;DHT22;9359;50.932;6.924;2023-11-22T22:05:41;22.30;99.90
18460;DHT22;9359;50.932;6.924;2023-11-22T22:08:12;22.30;99.90
18460;DHT22;9359;50.932;6.924;2023-11-22T22:10:41;22.30;99.90
18460;DHT22;9359;50.932;6.924;2023-11-22T22:13:10;22.30;99.90
18460;DHT22;9359;50.932;6.924;2023-11-22T22:15:39;22.30;99.90
18460;DHT22;9359;50.932;6.924;2023-11-22T22:18:08;22.30;99.90
18460;DHT22;9359;50.932;6.924;2023-11-22T22:20:38;22.30;99.90
18460;DHT22;9359;50.932;6.924;2023-11-22T22:23:07;22.30;99.90
18460;DHT22;9359;50.932;6.924;2023-11-22T22:25:36;22.30;99.90
18460;DHT22;9359;50.932;6.924;2023-11-22T22:28:05;22.30;99.90
18460;DHT22;9359;50.932;6.924;2023-11-22T22:30:34;22.30;99.90
18460;DHT22;9359;50.932;6.924;2023-11-22T22:33:04;22.30;99.90
18460;DHT22;9359;50.932;6.924;2023-11-22T22:35:32;22.30;99.90
18460;DHT22;9359;50.932;6.924;2023-11-22T22:38:03;22.30;99.90
18460;DHT22;9359;50.932;6.924;2023-11-22T22:40:34;22.30;99.90
18460;DHT22;9359;50.932;6.924;2023-11-22T22:43:03;22.30;99.90
18460;DHT22;9359;50.932;6.924;2023-11-22T22:45:32;22.30;99.90
18460;DHT22;9359;50.932;6.924;2023-11-22T22:48:02;22.30;99.90
18460;DHT22;9359;50.932;6.924;2023-11-22T22:50:31;22.30;99.90
18460;DHT22;9359;50.932;6.924;2023-11-22T22:53:02;22.20;99.90
18460;DHT22;9359;50.932;6.924;2023-11-22T22:55:35;22.20;99.90
18460;DHT22;9359;50.932;6.924;2023-11-22T22:58:03;22.20;99.90
18460;DHT22;9359;50.932;6.924;2023-11-22T23:00:33;22.30;99.90
18460;DHT22;9359;50.932;6.924;2023-11-22T23:03:06;22.30;99.90
18460;DHT22;9359;50.932;6.924;2023-11-22T23:05:35;22.20;99.90
18460;DHT22;9359;50.932;6.924;2023-11-22T23:08:06;22.20;99.90
18460;DHT22;9359;50.932;6.924;2023-11-22T23:10:35;22.30;99.90
18460;DHT22;9359;50.932;6.924;2023-11-22T23:13:06;22.20;99.90
18460;DHT22;9359;50.932;6.924;2023-11-22T23:15:35;22.30;99.90
18460;DHT22;9359;50.932;6.924;2023-11-22T23:18:06;22.30;99.90
18460;DHT22;9359;50.932;6.924;2023-11-22T23:20:37;22.30;99.90
18460;DHT22;9359;50.932;6.924;2023-11-22T23:23:07;22.30;99.90
18460;DHT22;9359;50.932;6.924;2023-11-22T23:25:36;22.20;99.90
18460;DHT22;9359;50.932;6.924;2023-11-22T23:28:05;22.30;99.90
18460;DHT22;9359;50.932;6.924;2023-11-22T23:30:34;22.20;99.90
18460;DHT22;9359;50.932;6.924;2023-11-22T23:33:03;22.30;99.90
18460;DHT22;9359;50.932;6.924;2023-11-22T23:35:35;22.30;99.90
18460;DHT22;9359;50.932;6.924;2023-11-22T23:38:07;22.30;99.90
18460;DHT22;9359;50.932;6.924;2023-11-22T23:40:36;22.30;99.90
18460;DHT22;9359;50.932;6.924;2023-11-22T23:43:05;22.30;99.90
18460;DHT22;9359;50.932;6.924;2023-11-22T23:45:34;22.40;99.90
18460;DHT22;9359;50.932;6.924;2023-11-22T23:48:04;22.40;99.90
18460;DHT22;9359;50.932;6.924;2023-11-22T23:50:34;22.30;99.90
18460;DHT22;9359;50.932;6.924;2023-11-22T23:53:06;22.30;99.90
18460;DHT22;9359;50.932;6.924;2023-11-22T23:55:34;22.30;99.90
18460;DHT22;9359;50.932;6.924;2023-11-22T23:58:03;22.30;99.90
